Nisku, Canada
Current Conditions -  °F | °C
As of 9:00 AM on Tuesday 21 Oct 2014 (Local Time) from CYEG Reporting Station
Broken Clouds Broken Clouds  
Wind Chill: 36°   Ceiling: 27000
Heat Index: 39°   Visibility: 15mi
Dew Point: 36°   Wind: 5mph
Humidity: 87%   Direction: 250°WSW
Pressure: 29.63"   Gusts: NA
Location:  53.33°N, 113.53°W
Report Text: CYEG 211500Z 25004KT 15SM FEW120 SCT150 BKN270 04/02 A2963 RMK AC1AC3CI3 SLP053
Loading
Personal Weather Stations






























Interactive Weather Map New forecast layout! Learn more

10-Day Weather Forecast

Advertisements
Track Severe Weather on mobile